ADDS METAR Data INFO
IDs: Format: Raw Decoded Include TAF

Data at: 0428 UTC 24 Apr 2018

KLBX 240353Z AUTO 00000KT 10SM CLR 17/15 A3004 RMK AO2 SLP172 T01720150
KLBX 240253Z AUTO 18004KT 10SM CLR 17/14 A3002 RMK AO2 SLP165 T01720144 53019
KLBX 240153Z AUTO 00000KT 10SM CLR 18/14 A3000 RMK AO2 SLP157 T01830139
KLBX 240053Z AUTO 34003KT 10SM CLR 21/13 A2998 RMK AO2 SLP151 T02110133
KLBX 232353Z AUTO 33007KT 10SM CLR 26/12 A2997 RMK AO2 SLP147 T02610117 10278 20244 56012
KLBX 232253Z AUTO 33007KT 10SM CLR 27/12 A2997 RMK AO2 SLP148 T02720117
KLBX 232153Z AUTO 31006KT 10SM CLR 27/11 A2997 RMK AO2 SLP149 T02720111
KLBX 232053Z AUTO 32009KT 10SM CLR 27/11 A3000 RMK AO2 SLP158 T02670111 58024
KLBX 231953Z AUTO 33011G15KT 10SM CLR 27/11 A3003 RMK AO2 SLP168 T02670111
KLBX 231853Z AUTO 31007KT 280V340 10SM CLR 26/11 A3005 RMK AO2 SLP176 T02560111
KLBX 231753Z AUTO 36008KT 10SM CLR 25/10 A3007 RMK AO2 SLP183 T02500100 10250 20100 58011
KLBX 231653Z AUTO 32007KT 10SM CLR 23/09 A3009 RMK AO2 SLP190 T02330094
KLBX 231553Z AUTO 32006KT 10SM CLR 22/10 A3010 RMK AO2 SLP192 T02170100
KLBX 231453Z AUTO 28004KT 10SM CLR 19/11 A3011 RMK AO2 SLP194 T01940111 51015
KLBX 231353Z AUTO 26003KT 10SM CLR 17/13 A3010 RMK AO2 SLP193 T01720128
KLBX 231253Z AUTO 00000KT 10SM CLR 14/12 A3009 RMK AO2 SLP187 T01390122
KLBX 231153Z AUTO 00000KT 10SM CLR 10/09 A3006 RMK AO2 SLP179 T01000089 10139 20100 53014
KLBX 231053Z AUTO 00000KT 10SM CLR 11/09 A3004 RMK AO2 SLP171 T01060094
KLBX 230953Z AUTO 00000KT 10SM CLR 12/10 A3002 RMK AO2 SLP166 T01170100
KLBX 230853Z AUTO 00000KT 10SM CLR 13/11 A3002 RMK AO2 SLP165 T01280111 58005
KLBX 230753Z AUTO 02006KT 10SM CLR 12/11 A3002 RMK AO2 SLP165 T01220106
KLBX 230653Z AUTO 01004KT 10SM CLR 13/11 A3004 RMK AO2 SLP172 T01280111
KLBX 230553Z AUTO 00000KT 10SM CLR 12/11 A3004 RMK AO2 SLP171 T01220111 10217 20122 402330122 50003
KLBX 230453Z AUTO 00000KT 10SM CLR 13/12 A3004 RMK AO2 SLP172 T01330117
KLBX 230353Z AUTO 00000KT 10SM CLR 14/12 A3004 RMK AO2 SLP173 T01390122
KLBX 230253Z AUTO 32004KT 10SM CLR 16/12 A3003 RMK AO2 SLP168 T01610117 53017
KLBX 230153Z AUTO 35004KT 10SM CLR 17/12 A3000 RMK AO2 SLP159 T01670117
KLBX 230053Z AUTO 34005KT 10SM CLR 19/12 A2998 RMK AO2 SLP152 T01940117
KLBX 222353Z AUTO 34007KT 10SM CLR 22/11 A2998 RMK AO2 SLP150 T02220111 10233 20200 56003
KLBX 222253Z AUTO 34009KT 10SM CLR 23/11 A2998 RMK AO2 SLP151 T02330111
KLBX 222153Z AUTO 33009KT 10SM CLR 23/12 A2997 RMK AO2 SLP149 T02330117
KLBX 222053Z AUTO 35011KT 10SM CLR 23/13 A2999 RMK AO2 SLP153 T02280128 56021
KLBX 221953Z AUTO 35013G18KT 10SM CLR 23/13 A3001 RMK AO2 SLP160 T02280133
KLBX 221853Z AUTO 34009G18KT 10SM CLR 21/13 A3002 RMK AO2 SLP166 T02110133
KLBX 221753Z AUTO 34011KT 10SM CLR 19/13 A3005 RMK AO2 SLP174 60000 T01940128 10200 20161 50006
KLBX 221712Z AUTO 33009G18KT 300V360 10SM FEW016 19/13 A3005 RMK AO2 T01890133
KLBX 221705Z AUTO 33009KT 300V360 10SM BKN016 18/13 A3005 RMK AO2 T01830128
KLBX 221649Z AUTO 35012G16KT 10SM SCT015 18/13 A3005 RMK AO2 RAB26E37 SLP176 P0000 T01830128
KLBX 221648Z AUTO 35011G16KT 10SM SCT015 18/13 A3005 RMK AO2 RAB26E37 P0000